createdAt,value
2018-07-16T00:01:03.770Z,31.87
2018-07-16T00:03:31.911Z,32.93
2018-07-16T00:06:00.101Z,29.40
2018-07-16T00:08:28.285Z,29.10
2018-07-16T00:10:56.417Z,30.20
2018-07-16T00:13:24.587Z,31.10
2018-07-16T00:15:52.806Z,31.20
2018-07-16T00:18:20.947Z,31.30
2018-07-16T00:20:49.076Z,33.13
2018-07-16T00:23:17.290Z,33.50
2018-07-16T00:25:45.476Z,32.67
2018-07-16T00:28:13.650Z,30.93
2018-07-16T00:30:41.892Z,30.30
2018-07-16T00:33:10.031Z,28.37
2018-07-16T00:35:38.166Z,28.10
2018-07-16T00:38:06.359Z,27.03
2018-07-16T00:40:34.500Z,23.87
2018-07-16T00:43:02.691Z,23.43
2018-07-16T00:45:30.962Z,24.83
2018-07-16T00:47:59.107Z,26.23
2018-07-16T00:50:27.340Z,24.07
2018-07-16T00:52:55.466Z,25.80
2018-07-16T00:55:23.603Z,26.50
2018-07-16T00:57:51.797Z,27.90
2018-07-16T01:00:19.948Z,25.77
2018-07-16T01:02:48.068Z,26.87
2018-07-16T01:05:16.211Z,24.63
2018-07-16T01:07:44.360Z,28.20
2018-07-16T01:10:12.485Z,29.60
2018-07-16T01:12:40.639Z,29.47
2018-07-16T01:15:08.759Z,29.23
2018-07-16T01:17:37.150Z,28.90
2018-07-16T01:20:05.268Z,27.30
2018-07-16T01:22:33.455Z,25.83
2018-07-16T01:25:01.655Z,27.17
2018-07-16T01:27:29.828Z,24.80
2018-07-16T01:29:57.961Z,25.60
2018-07-16T01:32:26.160Z,27.33
2018-07-16T01:34:54.305Z,25.63
2018-07-16T01:37:22.429Z,28.77
2018-07-16T01:39:50.571Z,27.47
2018-07-16T01:42:18.704Z,28.67
2018-07-16T01:44:46.817Z,28.57
2018-07-16T01:47:14.920Z,27.07
2018-07-16T01:49:43.078Z,28.40
2018-07-16T01:52:12.215Z,27.60
2018-07-16T01:54:40.500Z,27.97
2018-07-16T01:57:08.700Z,30.43
2018-07-16T01:59:36.989Z,28.90
2018-07-16T02:02:05.105Z,29.50
2018-07-16T02:04:33.235Z,29.63
2018-07-16T02:07:01.363Z,27.60
2018-07-16T02:09:29.568Z,28.20
2018-07-16T02:11:57.716Z,30.33
2018-07-16T02:14:25.914Z,30.33
2018-07-16T02:16:54.046Z,31.03
2018-07-16T02:19:22.190Z,34.20
2018-07-16T02:21:50.383Z,32.53
2018-07-16T02:24:18.502Z,34.57
2018-07-16T02:26:46.917Z,35.17
2018-07-16T02:29:15.110Z,36.83
2018-07-16T02:31:43.248Z,32.30
2018-07-16T02:34:11.464Z,34.80
2018-07-16T02:36:39.587Z,34.70
2018-07-16T02:39:07.813Z,32.03
2018-07-16T02:41:35.952Z,33.03
2018-07-16T02:44:04.119Z,32.43
2018-07-16T02:46:32.260Z,32.67
2018-07-16T02:49:00.415Z,31.70
2018-07-16T02:51:28.532Z,33.43
2018-07-16T02:53:56.673Z,32.10
2018-07-16T02:56:25.597Z,26.27
2018-07-16T02:58:53.760Z,31.77
2018-07-16T03:01:21.950Z,29.27
2018-07-16T03:03:50.342Z,31.57
2018-07-16T03:06:18.478Z,33.00
2018-07-16T03:08:46.663Z,31.53
2018-07-16T03:11:14.783Z,31.93
2018-07-16T03:13:42.909Z,32.67
2018-07-16T03:16:11.075Z,30.47
2018-07-16T03:18:39.262Z,30.57
2018-07-16T03:21:07.437Z,30.57
2018-07-16T03:23:35.644Z,28.53
2018-07-16T03:26:03.769Z,30.63
2018-07-16T03:28:31.955Z,30.20
2018-07-16T03:31:00.141Z,30.37
2018-07-16T03:33:28.343Z,24.93
2018-07-16T03:35:56.517Z,29.13
2018-07-16T03:38:24.675Z,30.53
2018-07-16T03:40:52.838Z,28.83
2018-07-16T03:43:21.028Z,29.17
2018-07-16T03:45:49.176Z,31.87
2018-07-16T03:48:17.075Z,29.77
2018-07-16T03:50:45.215Z,28.57
2018-07-16T03:53:13.349Z,29.33
2018-07-16T03:55:41.482Z,27.87
2018-07-16T03:58:09.624Z,28.97
2018-07-16T04:00:37.767Z,34.13
2018-07-16T04:03:05.938Z,30.97
2018-07-16T04:05:34.082Z,31.67
2018-07-16T04:08:02.201Z,30.70
2018-07-16T04:10:30.327Z,30.20
2018-07-16T04:12:58.530Z,30.20
2018-07-16T04:15:26.683Z,31.00
2018-07-16T04:17:54.815Z,33.30
2018-07-16T04:20:22.954Z,26.63
2018-07-16T04:22:54.731Z,26.07
2018-07-16T04:25:22.879Z,26.43
2018-07-16T04:27:51.011Z,25.03
2018-07-16T04:30:19.163Z,27.07
2018-07-16T04:32:47.305Z,27.50
2018-07-16T04:35:15.434Z,27.47
2018-07-16T04:37:43.568Z,29.73
2018-07-16T04:40:11.716Z,57.80
2018-07-16T04:42:47.793Z,65.83
2018-07-16T04:45:15.946Z,44.80
2018-07-16T04:47:44.104Z,37.27
2018-07-16T04:50:12.268Z,27.87
2018-07-16T04:52:40.412Z,30.47
2018-07-16T04:55:08.584Z,34.43
2018-07-16T04:57:36.772Z,24.27
2018-07-16T05:00:05.226Z,26.43
2018-07-16T05:02:33.368Z,18.17
2018-07-16T05:05:01.544Z,14.77
2018-07-16T05:07:29.680Z,12.00
2018-07-16T05:09:57.844Z,13.53
2018-07-16T05:12:25.998Z,13.63
2018-07-16T05:14:54.160Z,12.67
2018-07-16T05:17:22.336Z,11.00
2018-07-16T05:19:50.527Z,10.70
2018-07-16T05:22:18.690Z,10.63
2018-07-16T05:24:47.833Z,10.27
2018-07-16T05:27:15.998Z,9.60
2018-07-16T05:29:44.151Z,9.03
2018-07-16T05:32:12.444Z,8.27
2018-07-16T05:34:40.510Z,7.67
2018-07-16T05:37:08.706Z,8.60
2018-07-16T05:39:36.899Z,8.23
2018-07-16T05:42:05.040Z,8.30
2018-07-16T05:44:33.238Z,8.47
2018-07-16T05:47:01.399Z,8.40
2018-07-16T05:49:29.571Z,8.57
2018-07-16T05:51:57.719Z,7.63
2018-07-16T05:54:25.926Z,7.60
2018-07-16T05:56:53.919Z,7.73
2018-07-16T05:59:22.341Z,8.20
2018-07-16T06:01:51.052Z,6.80
2018-07-16T06:04:19.195Z,6.80
2018-07-16T06:06:48.448Z,6.40
2018-07-16T06:09:16.589Z,7.37
2018-07-16T06:11:44.735Z,7.00
2018-07-16T06:14:12.940Z,7.13
2018-07-16T06:16:48.459Z,6.93
2018-07-16T06:19:16.587Z,6.73
2018-07-16T06:21:50.777Z,6.93
2018-07-16T06:24:19.166Z,6.77
2018-07-16T06:26:47.320Z,6.33
2018-07-16T06:29:15.471Z,7.20
2018-07-16T06:31:43.652Z,7.03
2018-07-16T06:34:11.794Z,6.67
2018-07-16T06:36:39.934Z,6.23
2018-07-16T06:39:08.117Z,5.70
2018-07-16T06:41:36.614Z,6.07
2018-07-16T06:44:04.433Z,6.57
2018-07-16T06:46:33.284Z,5.90
2018-07-16T06:49:08.787Z,6.03
2018-07-16T06:51:36.947Z,5.83
2018-07-16T06:54:05.095Z,5.07
2018-07-16T06:56:33.777Z,5.57
2018-07-16T06:59:01.955Z,5.60
2018-07-16T07:01:30.091Z,5.40
2018-07-16T07:03:58.222Z,5.40
2018-07-16T07:06:26.391Z,5.23
2018-07-16T07:08:54.517Z,5.60
2018-07-16T07:11:22.708Z,5.37
2018-07-16T07:13:50.979Z,5.00
2018-07-16T07:16:19.154Z,5.17
2018-07-16T07:18:47.311Z,5.40
2018-07-16T07:21:15.463Z,4.83
2018-07-16T07:23:43.915Z,5.00
2018-07-16T07:26:12.118Z,5.60
2018-07-16T07:28:40.406Z,5.67
2018-07-16T07:31:08.610Z,5.80
2018-07-16T07:33:37.392Z,5.20
2018-07-16T07:36:05.673Z,5.50
2018-07-16T07:38:33.514Z,5.37
2018-07-16T07:41:01.683Z,5.23
2018-07-16T07:43:29.828Z,6.03
2018-07-16T07:45:57.993Z,5.10
2018-07-16T07:48:26.144Z,5.73
2018-07-16T07:50:54.283Z,5.80
2018-07-16T07:53:22.436Z,6.03
2018-07-16T07:55:50.613Z,5.83
2018-07-16T07:58:18.783Z,5.40
2018-07-16T08:00:46.955Z,5.50
2018-07-16T08:03:15.193Z,5.23
2018-07-16T08:05:47.551Z,5.43
2018-07-16T08:08:15.815Z,5.70
2018-07-16T08:10:43.979Z,5.17
2018-07-16T08:13:12.097Z,5.50
2018-07-16T08:15:41.000Z,5.60
2018-07-16T08:18:09.204Z,5.53
2018-07-16T08:20:37.359Z,5.50
2018-07-16T08:23:05.663Z,5.83
2018-07-16T08:25:33.808Z,5.33
2018-07-16T08:28:01.953Z,5.23
2018-07-16T08:30:30.101Z,5.23
2018-07-16T08:32:58.257Z,4.60
2018-07-16T08:35:26.451Z,5.30
2018-07-16T08:37:54.607Z,5.17
2018-07-16T08:40:23.783Z,4.80
2018-07-16T08:42:51.925Z,5.27
2018-07-16T08:45:20.078Z,4.87
2018-07-16T08:47:48.294Z,4.50
2018-07-16T08:50:16.445Z,5.10
2018-07-16T08:52:44.669Z,4.90
2018-07-16T08:55:12.771Z,5.13
2018-07-16T08:57:40.949Z,4.70
2018-07-16T09:00:09.119Z,5.40
2018-07-16T09:02:37.332Z,4.77
2018-07-16T09:05:05.617Z,4.40
2018-07-16T09:07:34.799Z,5.10
2018-07-16T09:10:03.063Z,4.77
2018-07-16T09:12:31.506Z,4.90
2018-07-16T09:14:59.725Z,5.30
2018-07-16T09:17:27.914Z,5.07
2018-07-16T09:19:56.081Z,5.00
2018-07-16T09:22:24.236Z,4.70
2018-07-16T09:24:52.387Z,4.67
2018-07-16T09:27:21.256Z,4.87
2018-07-16T09:29:49.422Z,4.70
2018-07-16T09:32:17.592Z,4.37
2018-07-16T09:34:45.720Z,4.60
2018-07-16T09:37:13.944Z,4.80
2018-07-16T09:39:42.088Z,4.50
2018-07-16T09:42:10.260Z,4.87
2018-07-16T09:44:38.456Z,4.60
2018-07-16T09:47:06.595Z,4.80
2018-07-16T09:49:34.727Z,4.63
2018-07-16T09:52:02.849Z,4.60
2018-07-16T09:54:31.068Z,4.80
2018-07-16T09:56:59.260Z,4.70
2018-07-16T09:59:27.391Z,4.77
2018-07-16T10:02:00.979Z,3.90
2018-07-16T10:04:29.100Z,3.83
2018-07-16T10:06:57.244Z,4.07
2018-07-16T10:09:25.361Z,4.40
2018-07-16T10:11:53.492Z,4.00
2018-07-16T10:14:21.630Z,4.20
2018-07-16T10:16:50.106Z,3.90
2018-07-16T10:19:18.259Z,3.60
2018-07-16T10:21:46.519Z,4.00
2018-07-16T10:24:14.735Z,4.27
2018-07-16T10:26:42.902Z,4.00
2018-07-16T10:29:11.038Z,4.23
2018-07-16T10:31:39.354Z,4.10
2018-07-16T10:34:07.530Z,3.80
2018-07-16T10:36:35.689Z,4.10
2018-07-16T10:39:05.304Z,3.80
2018-07-16T10:41:33.472Z,3.50
2018-07-16T10:44:01.637Z,3.50
2018-07-16T10:46:29.835Z,3.73
2018-07-16T10:48:58.004Z,3.60
2018-07-16T10:51:26.204Z,3.50
2018-07-16T10:53:54.396Z,3.20
2018-07-16T10:56:22.579Z,3.33
2018-07-16T10:58:50.731Z,3.30
2018-07-16T11:01:18.905Z,3.50
2018-07-16T11:03:47.084Z,3.43
2018-07-16T11:06:20.566Z,3.30
2018-07-16T11:08:48.955Z,3.30
2018-07-16T11:11:17.091Z,3.43
2018-07-16T11:13:45.235Z,3.33
2018-07-16T11:16:13.391Z,3.20
2018-07-16T11:18:41.355Z,3.37
2018-07-16T11:21:09.494Z,3.47
2018-07-16T11:23:37.680Z,3.23
2018-07-16T11:26:05.873Z,3.47
2018-07-16T11:28:34.025Z,3.40
2018-07-16T11:31:02.219Z,3.20
2018-07-16T11:33:30.373Z,3.00
2018-07-16T11:35:59.403Z,2.83
2018-07-16T11:38:27.583Z,3.47
2018-07-16T11:40:55.749Z,3.40
2018-07-16T11:43:23.897Z,3.50
2018-07-16T11:45:52.584Z,3.73
2018-07-16T11:48:20.742Z,3.63
2018-07-16T11:50:48.979Z,3.40
2018-07-16T11:53:17.158Z,3.67
2018-07-16T11:55:45.326Z,3.23
2018-07-16T11:58:13.617Z,3.67
2018-07-16T12:00:41.748Z,3.10
2018-07-16T12:03:10.075Z,3.33
2018-07-16T12:05:38.237Z,3.43
2018-07-16T12:08:07.052Z,3.67
2018-07-16T12:10:35.374Z,3.40
2018-07-16T12:13:03.606Z,3.07
2018-07-16T12:15:31.837Z,3.30
2018-07-16T12:18:00.033Z,3.30
2018-07-16T12:20:28.207Z,3.70
2018-07-16T12:22:56.329Z,3.30
2018-07-16T12:25:24.471Z,2.80
2018-07-16T12:27:53.633Z,3.43
2018-07-16T12:30:21.764Z,3.00
2018-07-16T12:32:49.992Z,3.00
2018-07-16T12:35:18.058Z,3.03
2018-07-16T12:37:46.214Z,3.30
2018-07-16T12:40:14.339Z,3.03
2018-07-16T12:42:42.465Z,3.30
2018-07-16T12:45:10.628Z,3.43
2018-07-16T12:47:38.775Z,3.20
2018-07-16T12:50:06.818Z,3.43
2018-07-16T12:52:34.977Z,2.93
2018-07-16T12:55:03.115Z,2.80
2018-07-16T12:57:31.283Z,2.87
2018-07-16T12:59:59.411Z,2.97
2018-07-16T13:02:27.560Z,2.83
2018-07-16T13:04:56.114Z,2.80
2018-07-16T13:07:24.277Z,2.67
2018-07-16T13:09:52.526Z,2.77
2018-07-16T13:12:20.703Z,3.13
2018-07-16T13:14:49.395Z,2.63
2018-07-16T13:17:17.634Z,2.90
2018-07-16T13:19:45.783Z,2.90
2018-07-16T13:22:13.930Z,2.90
2018-07-16T13:24:42.155Z,3.00
2018-07-16T13:27:10.293Z,2.90
2018-07-16T13:29:38.452Z,3.00
2018-07-16T13:32:06.736Z,2.80
2018-07-16T13:34:34.889Z,2.67
2018-07-16T13:37:03.067Z,2.90
2018-07-16T13:39:31.200Z,2.57
2018-07-16T13:41:59.355Z,2.83
2018-07-16T13:44:27.488Z,2.97
2018-07-16T13:46:55.647Z,2.80
2018-07-16T13:49:23.793Z,3.13
2018-07-16T13:51:51.915Z,2.93
2018-07-16T13:54:20.102Z,2.87
2018-07-16T13:56:48.255Z,3.40
2018-07-16T13:59:16.386Z,2.80
2018-07-16T14:01:44.623Z,2.93
2018-07-16T14:04:12.720Z,2.43
2018-07-16T14:06:40.857Z,2.80
2018-07-16T14:09:09.051Z,2.83
2018-07-16T14:11:37.259Z,2.80
2018-07-16T14:14:05.956Z,2.90
2018-07-16T14:16:34.133Z,2.53
2018-07-16T14:19:02.287Z,2.77
2018-07-16T14:21:30.447Z,2.70
2018-07-16T14:23:58.620Z,2.60
2018-07-16T14:26:26.763Z,2.60
2018-07-16T14:28:54.932Z,2.60
2018-07-16T14:31:23.076Z,3.00
2018-07-16T14:33:51.237Z,2.87
2018-07-16T14:36:19.608Z,2.90
2018-07-16T14:38:47.987Z,2.70
2018-07-16T14:41:16.754Z,2.70
2018-07-16T14:43:44.993Z,2.60
2018-07-16T14:46:13.227Z,2.80
2018-07-16T14:48:41.387Z,2.90
2018-07-16T14:51:09.538Z,2.70
2018-07-16T14:53:37.696Z,2.60
2018-07-16T14:56:05.897Z,2.57
2018-07-16T14:58:34.043Z,2.60
2018-07-16T15:01:02.198Z,2.60
2018-07-16T15:03:31.500Z,2.60
2018-07-16T15:05:59.670Z,2.53
2018-07-16T15:08:27.916Z,2.90
2018-07-16T15:10:56.060Z,2.67
2018-07-16T15:13:24.855Z,2.53
2018-07-16T15:15:53.019Z,2.20
2018-07-16T15:18:21.202Z,2.40
2018-07-16T15:20:49.511Z,2.40
2018-07-16T15:23:17.531Z,2.47
2018-07-16T15:25:45.687Z,2.30
2018-07-16T15:28:13.851Z,2.60
2018-07-16T15:30:42.060Z,2.70
2018-07-16T15:33:10.248Z,2.20
2018-07-16T15:35:38.449Z,2.60
2018-07-16T15:38:06.804Z,2.60
2018-07-16T15:40:34.959Z,2.33
2018-07-16T15:43:03.147Z,2.60
2018-07-16T15:45:31.412Z,2.33
2018-07-16T15:47:59.579Z,2.50
2018-07-16T15:50:27.723Z,2.37
2018-07-16T15:52:55.934Z,2.67
2018-07-16T15:55:24.122Z,2.60
2018-07-16T15:57:52.308Z,2.83
2018-07-16T16:00:20.316Z,2.60
2018-07-16T16:02:48.572Z,2.90
2018-07-16T16:05:17.256Z,2.77
2018-07-16T16:07:45.403Z,3.53
2018-07-16T16:10:13.587Z,2.77
2018-07-16T16:12:41.813Z,2.60
2018-07-16T16:15:10.065Z,2.70
2018-07-16T16:17:38.242Z,2.60
2018-07-16T16:20:06.397Z,2.60
2018-07-16T16:22:34.571Z,3.13
2018-07-16T16:25:02.769Z,2.67
2018-07-16T16:27:34.004Z,2.73
2018-07-16T16:30:02.332Z,3.17
2018-07-16T16:32:30.728Z,2.80
2018-07-16T16:34:58.856Z,2.83
2018-07-16T16:37:27.083Z,2.70
2018-07-16T16:39:55.123Z,2.60
2018-07-16T16:42:23.270Z,2.80
2018-07-16T16:44:51.592Z,2.80
2018-07-16T16:47:19.778Z,2.60
2018-07-16T16:49:47.967Z,2.83
2018-07-16T16:52:16.147Z,2.83
2018-07-16T16:54:44.317Z,2.97
2018-07-16T16:57:12.438Z,2.63
2018-07-16T16:59:40.635Z,2.97
2018-07-16T17:02:08.788Z,2.87
2018-07-16T17:04:36.922Z,2.60
2018-07-16T17:07:05.082Z,2.63
2018-07-16T17:09:33.259Z,2.83
2018-07-16T17:12:01.424Z,2.60
2018-07-16T17:14:29.615Z,2.60
2018-07-16T17:16:57.829Z,2.70
2018-07-16T17:19:26.005Z,2.40
2018-07-16T17:21:54.184Z,2.53
2018-07-16T17:24:34.923Z,2.63
2018-07-16T17:27:03.165Z,3.00
2018-07-16T17:29:31.343Z,2.67
2018-07-16T17:31:59.498Z,2.60
2018-07-16T17:34:27.700Z,2.77
2018-07-16T17:36:55.859Z,2.30
2018-07-16T17:39:24.067Z,2.90
2018-07-16T17:41:52.280Z,2.67
2018-07-16T17:44:20.734Z,2.70
2018-07-16T17:46:48.879Z,2.60
2018-07-16T17:49:17.341Z,2.67
2018-07-16T17:51:45.529Z,3.00
2018-07-16T17:54:13.672Z,2.70
2018-07-16T17:56:41.821Z,2.67
2018-07-16T17:59:10.053Z,3.00
2018-07-16T18:01:38.240Z,2.67
2018-07-16T18:04:06.333Z,2.70
2018-07-16T18:06:34.480Z,2.67
2018-07-16T18:09:02.616Z,2.80
2018-07-16T18:11:30.779Z,2.90
2018-07-16T18:14:00.973Z,3.00
2018-07-16T18:16:29.140Z,3.00
2018-07-16T18:18:57.260Z,2.77
2018-07-16T18:21:25.408Z,2.80
2018-07-16T18:23:53.856Z,2.80
2018-07-16T18:26:22.133Z,2.80
2018-07-16T18:28:50.284Z,3.10
2018-07-16T18:31:18.812Z,3.00
2018-07-16T18:33:47.049Z,2.97
2018-07-16T18:36:15.220Z,3.13
2018-07-16T18:38:43.373Z,2.70
2018-07-16T18:41:11.573Z,2.80
2018-07-16T18:43:39.792Z,2.77
2018-07-16T18:46:07.904Z,2.97
2018-07-16T18:48:36.047Z,3.13
2018-07-16T18:51:04.217Z,2.93
2018-07-16T18:53:32.381Z,3.20
2018-07-16T18:56:00.568Z,3.30
2018-07-16T18:58:30.775Z,2.83
2018-07-16T19:00:58.948Z,3.17
2018-07-16T19:03:27.126Z,3.30
2018-07-16T19:05:55.337Z,3.30
2018-07-16T19:08:23.498Z,3.50
2018-07-16T19:10:51.663Z,3.57
2018-07-16T19:13:19.806Z,4.43
2018-07-16T19:15:47.954Z,4.30
2018-07-16T19:18:16.096Z,3.17
2018-07-16T19:20:44.286Z,3.10
2018-07-16T19:23:12.440Z,3.10
2018-07-16T19:25:40.606Z,3.20
2018-07-16T19:28:08.796Z,3.30
2018-07-16T19:30:37.124Z,3.03
2018-07-16T19:33:05.277Z,3.37
2018-07-16T19:35:33.470Z,3.40
2018-07-16T19:38:01.574Z,3.73
2018-07-16T19:40:29.735Z,3.83
2018-07-16T19:42:57.885Z,3.70
2018-07-16T19:45:26.036Z,3.93
2018-07-16T19:47:54.192Z,3.23
2018-07-16T19:50:22.516Z,3.50
2018-07-16T19:52:50.721Z,3.83
2018-07-16T19:55:19.050Z,4.00
2018-07-16T19:57:48.297Z,3.90
2018-07-16T20:00:16.436Z,3.93
2018-07-16T20:02:44.567Z,3.70
2018-07-16T20:05:12.736Z,4.20
2018-07-16T20:07:43.232Z,4.50
2018-07-16T20:10:11.508Z,4.93
2018-07-16T20:12:39.737Z,4.73
2018-07-16T20:15:09.103Z,4.93
2018-07-16T20:17:36.996Z,4.80
2018-07-16T20:20:11.123Z,4.03
2018-07-16T20:22:40.401Z,4.40
2018-07-16T20:25:08.957Z,4.60
2018-07-16T20:27:37.156Z,4.20
2018-07-16T20:30:07.588Z,4.30
2018-07-16T20:32:35.868Z,4.67
2018-07-16T20:35:04.173Z,5.30
2018-07-16T20:37:32.358Z,5.07
2018-07-16T20:40:00.588Z,4.53
2018-07-16T20:42:29.053Z,5.40
2018-07-16T20:44:57.296Z,5.23
2018-07-16T20:47:25.434Z,5.40
2018-07-16T20:49:53.640Z,5.23
2018-07-16T20:52:21.819Z,5.23
2018-07-16T20:54:50.074Z,5.50
2018-07-16T20:57:18.285Z,6.60
2018-07-16T20:59:46.448Z,5.43
2018-07-16T21:02:14.840Z,5.10
2018-07-16T21:04:43.012Z,5.63
2018-07-16T21:07:11.213Z,5.53
2018-07-16T21:09:39.544Z,5.83
2018-07-16T21:12:07.816Z,6.23
2018-07-16T21:14:36.011Z,5.67
2018-07-16T21:17:04.678Z,5.80
2018-07-16T21:19:34.415Z,5.57
2018-07-16T21:22:02.617Z,5.93
2018-07-16T21:24:30.834Z,6.07
2018-07-16T21:26:59.581Z,5.60
2018-07-16T21:29:27.772Z,6.60
2018-07-16T21:31:59.465Z,5.97
2018-07-16T21:34:28.130Z,6.33
2018-07-16T21:36:56.396Z,6.73
2018-07-16T21:39:24.767Z,6.13
2018-07-16T21:41:53.968Z,6.30
2018-07-16T21:44:23.145Z,6.70
2018-07-16T21:46:51.604Z,7.17
2018-07-16T21:49:19.804Z,7.60
2018-07-16T21:51:48.185Z,7.30
2018-07-16T21:54:16.447Z,7.00
2018-07-16T21:56:44.660Z,7.47
2018-07-16T21:59:12.832Z,7.30
2018-07-16T22:01:41.074Z,7.17
2018-07-16T22:04:09.002Z,7.43
2018-07-16T22:06:37.182Z,7.47
2018-07-16T22:09:06.617Z,7.57
2018-07-16T22:11:34.804Z,7.30
2018-07-16T22:14:02.902Z,7.30
2018-07-16T22:16:31.067Z,6.90
2018-07-16T22:18:59.206Z,7.20
2018-07-16T22:21:27.434Z,7.50
2018-07-16T22:23:55.616Z,7.93
2018-07-16T22:26:23.755Z,7.53
2018-07-16T22:28:51.984Z,8.00
2018-07-16T22:31:20.137Z,8.70
2018-07-16T22:33:48.310Z,8.67
2018-07-16T22:36:16.554Z,7.97
2018-07-16T22:38:44.717Z,9.77
2018-07-16T22:41:12.905Z,8.77
2018-07-16T22:43:41.157Z,7.73
2018-07-16T22:46:09.325Z,7.50
2018-07-16T22:48:37.493Z,7.37
2018-07-16T22:51:05.668Z,7.90
2018-07-16T22:53:33.912Z,7.83
2018-07-16T22:56:02.051Z,9.03
2018-07-16T22:58:30.219Z,8.10
2018-07-16T23:00:58.355Z,8.77
2018-07-16T23:03:26.519Z,8.70
2018-07-16T23:05:54.650Z,8.10
2018-07-16T23:08:22.806Z,7.53
2018-07-16T23:10:50.941Z,8.43
2018-07-16T23:13:19.084Z,7.93
2018-07-16T23:15:47.244Z,8.70
2018-07-16T23:18:15.416Z,8.10
2018-07-16T23:20:43.870Z,7.73
2018-07-16T23:23:12.009Z,8.00
2018-07-16T23:25:40.146Z,8.33
2018-07-16T23:28:08.326Z,7.77
2018-07-16T23:30:36.468Z,8.10
2018-07-16T23:33:04.633Z,8.30
2018-07-16T23:35:32.772Z,7.70
2018-07-16T23:38:00.936Z,8.77
2018-07-16T23:40:29.070Z,7.40
2018-07-16T23:42:57.210Z,8.10
2018-07-16T23:45:25.346Z,8.50
2018-07-16T23:47:53.485Z,8.77
2018-07-16T23:50:21.688Z,9.13
2018-07-16T23:52:49.925Z,9.70
2018-07-16T23:55:18.089Z,9.97
2018-07-16T23:57:46.232Z,9.67
